Bosler, WY (82051)

5:36 PM MDT on May 28, 2017 (GMT -0600)
North of Old Laramie HS | | Change Station

Elev 7165 ft 41.33 °N, 105.58 °W | Updated 43 seconds ago

Partly Cloudy
Partly Cloudy
67.1 °F
Feels Like 67.1 °F
N
4.0
Wind Variable Wind from NNW

Today
High -- | Low -- °F
--% Chance of Precip.
Yesterday
High -- | Low -- °F
Precip. -- in
Pressure 30.11 in
Visibility 10.0 miles
Clouds Few 10000 ft
Dew Point 32 °F
Humidity 27%
Rainfall 0.00 in
Snow Depth Not available.
5:33 AM 8:27 PM
Waxing Crescent, 14% visible
METAR KLAR 282253Z AUTO 33012G22KT 10SM FEW100 17/M02 A3027 RMK AO2 SLP195 T01721022
Pressure 30.11 in
Visibility 10.0 miles
Clouds Few 10000 ft
Dew Point 32 °F
Humidity 27%
Rainfall 0.00 in
Snow Depth Not available.
5:33 AM 8:27 PM
Waxing Crescent, 14% visible
METAR KLAR 282253Z AUTO 33012G22KT 10SM FEW100 17/M02 A3027 RMK AO2 SLP195 T01721022

Get Severe Weather Alerts

Thanks for signing up!

Be on the lookout for a verification email in your inbox.

You'll start receiving the daily forecast at 6 AM.

×

10-Day Weather Forecast

Almanac

Astronomy

May. 28, 2017 Rise Set
Actual Time
Civil Twilight
Nautical Twilight
Astronomical Twilight
Moon
Length of Visible Light
Length of Day
Tomorrow will be .
, % of the Moon is Illuminated

Today's Extremes

State Highs State Lows

Community

WunderPhotos

Category 6

Welcome to Category 6. This is the collective home for Weather Underground's featured writeups by Dr. Jeff Masters (right), Bob Henson (left), Chris Burt, and other regular contributors.

Nearby

Air Quality

  Air Quality AQ Index Pollutant
Not available.

Snow Depth

Station Depth Elevation

Earthquake Activity

City Distance Mag. Time & Date
Minimum magnitude displayed is 2.5.

Coastal Water Temperatures

Place Temperature

Stations

Nearby Weather Stations

Station Location Temp. Windchill Dew Point Humidity Wind Precip. Elev Updated Type
                   

Watches & Warnings

There are currently no watches in effect.